createdAt,value
2023-01-31T00:03:29.312Z,29.9
2023-01-31T00:08:52.614Z,32.4
2023-01-31T00:14:15.691Z,31.9
2023-01-31T00:19:39.007Z,30.6
2023-01-31T00:25:02.589Z,31.6
2023-01-31T00:30:26.413Z,31.4
2023-01-31T00:35:49.533Z,27.1
2023-01-31T00:40:56.839Z,32.3
2023-01-31T00:46:03.802Z,32
2023-01-31T00:51:27.209Z,30.7
2023-01-31T00:56:50.768Z,32.1
2023-01-31T01:02:14.669Z,32.4
2023-01-31T01:07:37.660Z,30.9
2023-01-31T01:13:01.094Z,32
2023-01-31T01:18:25.309Z,32.4
2023-01-31T01:23:48.631Z,30.8
2023-01-31T01:29:12.685Z,32.1
2023-01-31T01:34:20.131Z,32.3
2023-01-31T01:39:44.307Z,30.9
2023-01-31T01:44:52.078Z,31.9
2023-01-31T01:50:01.026Z,32.5
2023-01-31T01:55:09.251Z,31.1
2023-01-31T02:00:31.103Z,31.9
2023-01-31T02:05:53.890Z,32.4
2023-01-31T02:11:16.884Z,30.1
2023-01-31T02:16:41.204Z,32.4
2023-01-31T02:21:32.621Z,32
2023-01-31T02:26:54.876Z,30.6
2023-01-31T02:32:18.347Z,32.8
2023-01-31T02:37:40.902Z,24
2023-01-31T02:42:47.142Z,30.3
2023-01-31T02:48:10.470Z,33.1
2023-01-31T02:53:33.105Z,31.7
2023-01-31T02:58:56.351Z,31.9
2023-01-31T03:04:20.213Z,32.5
2023-01-31T03:09:43.345Z,30.2
2023-01-31T03:15:05.668Z,32.5
2023-01-31T03:20:13.722Z,31.9
2023-01-31T03:25:21.823Z,30.8
2023-01-31T03:30:44.963Z,32.8
2023-01-31T03:36:08.137Z,31.8
2023-01-31T03:41:31.749Z,31.4
2023-01-31T03:46:55.855Z,32.8
2023-01-31T03:52:17.908Z,31.4
2023-01-31T03:57:40.715Z,32.3
2023-01-31T04:02:49.216Z,32.3
2023-01-31T04:08:12.347Z,30.8
2023-01-31T04:13:19.925Z,32.9
2023-01-31T04:18:43.477Z,31.9
2023-01-31T04:24:06.446Z,31.5
2023-01-31T04:29:30.033Z,31.6
2023-01-31T04:34:53.536Z,25.7
2023-01-31T04:40:16.893Z,32
2023-01-31T04:45:40.103Z,32.5
2023-01-31T04:51:03.425Z,30.8
2023-01-31T04:56:26.842Z,32.9
2023-01-31T05:01:50.091Z,32.1
2023-01-31T05:06:59.513Z,31.8
2023-01-31T05:12:22.958Z,32.6
2023-01-31T05:17:45.975Z,30.6
2023-01-31T05:23:09.157Z,32.6
2023-01-31T05:28:36.666Z,32.1
2023-01-31T05:34:03.975Z,31.5
2023-01-31T05:39:26.905Z,32.8
2023-01-31T05:44:49.930Z,31.6
2023-01-31T05:49:56.924Z,32.5
2023-01-31T05:55:20.829Z,32.2
2023-01-31T06:00:27.865Z,31.4
2023-01-31T06:05:37.131Z,33.3
2023-01-31T06:11:00.183Z,31.6
2023-01-31T06:16:23.858Z,32.4
2023-01-31T06:21:32.049Z,27.1
2023-01-31T06:26:54.909Z,28.8
2023-01-31T06:32:18.607Z,32.9
2023-01-31T06:37:55.728Z,32.1
2023-01-31T06:43:03.687Z,30.9
2023-01-31T06:48:12.689Z,27.4
2023-01-31T06:53:35.242Z,26.6
2023-01-31T06:58:59.175Z,30.7
2023-01-31T07:04:22.186Z,32.9
2023-01-31T07:09:45.309Z,32.3
2023-01-31T07:15:08.615Z,31.1
2023-01-31T07:20:31.162Z,27.5
2023-01-31T07:25:55.289Z,26.5
2023-01-31T07:37:39.338Z,32.8
2023-01-31T07:43:02.977Z,32.5
2023-01-31T07:48:55.499Z,31.4
2023-01-31T07:54:18.731Z,27.6
2023-01-31T07:59:42.278Z,26.8
2023-01-31T08:05:13.228Z,30.3
2023-01-31T08:10:36.196Z,32.7
2023-01-31T08:15:58.965Z,32.9
2023-01-31T08:21:22.262Z,31.6
2023-01-31T08:26:46.260Z,30.6
2023-01-31T08:32:24.205Z,32.8
2023-01-31T08:37:50.156Z,32.6
2023-01-31T08:43:23.800Z,31.4
2023-01-31T08:54:21.669Z,26.6
2023-01-31T08:59:57.892Z,29.9
2023-01-31T09:05:22.012Z,27.8
2023-01-31T09:10:45.418Z,24.7
2023-01-31T09:16:07.881Z,31.6
2023-01-31T09:21:15.609Z,33.6
2023-01-31T09:26:54.706Z,32.3
2023-01-31T09:32:18.603Z,30.9
2023-01-31T09:37:41.571Z,31.8
2023-01-31T09:43:04.834Z,33.5
2023-01-31T09:48:28.519Z,32
2023-01-31T09:53:52.082Z,30.8
2023-01-31T09:59:16.325Z,32.2
2023-01-31T10:04:40.291Z,33
2023-01-31T10:09:48.315Z,31.8
2023-01-31T10:14:57.439Z,30.2
2023-01-31T10:20:05.705Z,32.8
2023-01-31T10:25:14.802Z,32.8
2023-01-31T10:30:25.068Z,31.7
2023-01-31T10:35:31.979Z,28.4
2023-01-31T10:40:56.486Z,26.8
2023-01-31T10:46:19.439Z,28.6
2023-01-31T10:51:43.797Z,32.3
2023-01-31T10:57:07.532Z,33.3
2023-01-31T11:02:30.047Z,31.9
2023-01-31T11:07:37.098Z,29.8
2023-01-31T11:13:00.568Z,32.6
2023-01-31T11:18:23.193Z,32.9
2023-01-31T11:23:45.863Z,31.8
2023-01-31T11:29:08.764Z,28.3
2023-01-31T11:34:31.775Z,26.8
2023-01-31T11:39:38.543Z,29.1
2023-01-31T11:45:01.430Z,30.8
2023-01-31T11:50:26.729Z,26.8
2023-01-31T11:55:50.603Z,32.2
2023-01-31T12:01:13.805Z,33.2
2023-01-31T12:06:50.822Z,31.8
2023-01-31T12:12:13.416Z,30.6
2023-01-31T12:17:46.510Z,32.9
2023-01-31T12:23:14.250Z,32.6
2023-01-31T12:28:37.272Z,31.4
2023-01-31T12:34:00.382Z,31.6
2023-01-31T12:39:38.037Z,33.3
2023-01-31T12:45:09.732Z,31.5
2023-01-31T12:50:48.048Z,30
2023-01-31T12:56:11.501Z,31.9
2023-01-31T13:01:47.726Z,33.6
2023-01-31T13:07:11.552Z,31.1
2023-01-31T13:12:46.915Z,29.8
2023-01-31T13:17:54.533Z,28.7
2023-01-31T13:23:17.436Z,27.7
2023-01-31T13:28:40.385Z,26.6
2023-01-31T13:34:03.774Z,25.6
2023-01-31T13:39:26.869Z,24.8
2023-01-31T13:44:34.098Z,24.1
2023-01-31T13:49:57.937Z,23.4
2023-01-31T13:55:24.033Z,22.9
2023-01-31T14:00:33.514Z,22.5
2023-01-31T14:05:56.524Z,22.3
2023-01-31T14:11:20.558Z,22
2023-01-31T14:16:44.376Z,21.8
2023-01-31T14:22:07.359Z,21.6
2023-01-31T14:27:29.917Z,21.4
2023-01-31T14:32:55.430Z,21.3
2023-01-31T14:38:17.899Z,21.1
2023-01-31T14:43:41.069Z,20.9
2023-01-31T14:49:08.318Z,20.8
2023-01-31T14:54:30.668Z,20.7
2023-01-31T14:59:53.427Z,20.7
2023-01-31T15:05:15.789Z,20.6
2023-01-31T15:10:38.951Z,20.4
2023-01-31T15:16:23.174Z,31.8
2023-01-31T15:22:03.017Z,35.8
2023-01-31T15:27:25.836Z,38.3
2023-01-31T15:32:49.229Z,39.1
2023-01-31T15:37:56.225Z,37.5
2023-01-31T15:43:19.444Z,38.7
2023-01-31T15:48:42.669Z,39.5
2023-01-31T15:54:24.615Z,39.4
2023-01-31T15:59:48.874Z,39.1
2023-01-31T16:05:11.948Z,38.9
2023-01-31T16:10:09.096Z,39.1
2023-01-31T16:15:31.970Z,39.7
2023-01-31T16:20:54.978Z,39.8
2023-01-31T16:26:18.068Z,39.9
2023-01-31T16:31:42.310Z,40.1
2023-01-31T16:37:04.498Z,39.7
2023-01-31T16:42:26.864Z,39.6
2023-01-31T16:47:49.393Z,39.8
2023-01-31T16:53:28.549Z,39.8
2023-01-31T16:58:51.689Z,39.2
2023-01-31T17:04:15.388Z,38.6
2023-01-31T17:09:25.804Z,37.5
2023-01-31T17:14:48.373Z,37.5
2023-01-31T17:20:17.027Z,37
2023-01-31T17:25:52.398Z,36.1
2023-01-31T17:31:18.978Z,37.4
2023-01-31T17:36:44.189Z,36.9
2023-01-31T17:42:24.043Z,37.2
2023-01-31T17:47:40.906Z,38.4
2023-01-31T17:53:05.720Z,37.1
2023-01-31T17:58:44.882Z,38.4
2023-01-31T18:04:27.871Z,38.3
2023-01-31T18:10:01.902Z,37.8
2023-01-31T18:15:35.356Z,38.1
2023-01-31T18:21:13.367Z,37.3
2023-01-31T18:26:44.507Z,37.1
2023-01-31T18:32:19.182Z,36.6
2023-01-31T18:38:32.111Z,34.8
2023-01-31T18:43:48.728Z,34
2023-01-31T18:49:26.732Z,33.6
2023-01-31T18:55:00.228Z,34.7
2023-01-31T19:00:40.017Z,36.6
2023-01-31T19:05:58.134Z,38.4
2023-01-31T19:11:03.075Z,38.8
2023-01-31T19:16:10.280Z,37.8
2023-01-31T19:21:46.966Z,38.1
2023-01-31T19:27:09.435Z,37.7
2023-01-31T19:32:45.213Z,37.3
2023-01-31T19:38:23.606Z,36.7
2023-01-31T19:43:58.525Z,37
2023-01-31T19:49:43.541Z,36.8
2023-01-31T19:55:04.711Z,36.8
2023-01-31T20:00:13.695Z,35.7
2023-01-31T20:05:21.624Z,35.1
2023-01-31T20:10:44.693Z,35.1
2023-01-31T20:15:53.392Z,36.4
2023-01-31T20:21:02.641Z,36.8
2023-01-31T20:26:25.846Z,36.6
2023-01-31T20:31:48.954Z,37.8
2023-01-31T20:36:40.766Z,36.5
2023-01-31T20:42:04.169Z,35.9
2023-01-31T20:47:11.767Z,36.1
2023-01-31T20:52:20.980Z,34.4
2023-01-31T20:57:28.654Z,33.4
2023-01-31T21:02:51.587Z,32.9
2023-01-31T21:07:43.203Z,32.3
2023-01-31T21:13:06.437Z,31.6
2023-01-31T21:18:38.767Z,30.6
2023-01-31T21:24:02.119Z,29.8
2023-01-31T21:29:09.853Z,29.7
2023-01-31T21:34:34.421Z,29.4
2023-01-31T21:39:56.498Z,29
2023-01-31T21:45:03.839Z,28.6
2023-01-31T21:50:29.662Z,28.3
2023-01-31T21:55:37.163Z,28
2023-01-31T22:01:00.504Z,27.8
2023-01-31T22:06:08.103Z,27.5
2023-01-31T22:11:15.777Z,27.3
2023-01-31T22:16:41.026Z,26
2023-01-31T22:22:04.469Z,25.2
2023-01-31T22:27:27.146Z,30.6
2023-01-31T22:33:04.656Z,32.4
2023-01-31T22:38:27.616Z,30.6
2023-01-31T22:43:51.853Z,28.2
2023-01-31T22:49:15.227Z,26.8
2023-01-31T22:54:38.204Z,25.8
2023-01-31T23:00:00.544Z,25.1
2023-01-31T23:05:23.828Z,28.3
2023-01-31T23:10:30.697Z,32.7
2023-01-31T23:15:37.394Z,31.8
2023-01-31T23:20:44.821Z,30.7
2023-01-31T23:26:07.812Z,27.5
2023-01-31T23:31:31.711Z,26.4
2023-01-31T23:36:39.749Z,25.3
2023-01-31T23:41:46.888Z,24.8
2023-01-31T23:47:09.696Z,29.6
2023-01-31T23:52:32.105Z,32.8
2023-01-31T23:57:55.672Z,32.1
